createdAt,value
2018-11-21T00:00:17.289Z,1005.67
2018-11-21T00:01:17.275Z,1005.69
2018-11-21T00:02:17.258Z,1005.73
2018-11-21T00:03:17.250Z,1005.65
2018-11-21T00:04:17.240Z,1005.67
2018-11-21T00:05:17.229Z,1005.74
2018-11-21T00:06:17.216Z,1005.68
2018-11-21T00:07:17.206Z,1005.70
2018-11-21T00:08:17.190Z,1005.71
2018-11-21T00:09:17.177Z,1005.70
2018-11-21T00:10:17.165Z,1005.79
2018-11-21T00:11:17.155Z,1005.81
2018-11-21T00:12:17.147Z,1005.77
2018-11-21T00:13:17.135Z,1005.73
2018-11-21T00:14:17.123Z,1005.81
2018-11-21T00:15:17.112Z,1005.74
2018-11-21T00:16:17.095Z,1005.76
2018-11-21T00:17:17.083Z,1005.80
2018-11-21T00:18:17.075Z,1005.77
2018-11-21T00:19:17.063Z,1005.82
2018-11-21T00:20:17.047Z,1005.88
2018-11-21T00:21:17.036Z,1005.88
2018-11-21T00:22:17.024Z,1005.88
2018-11-21T00:23:17.013Z,1005.94
2018-11-21T00:24:17.005Z,1005.94
2018-11-21T00:25:16.994Z,1006.01
2018-11-21T00:26:16.981Z,1006.01
2018-11-21T00:27:16.972Z,1006.00
2018-11-21T00:28:16.953Z,1005.95
2018-11-21T00:29:16.942Z,1005.95
2018-11-21T00:30:16.929Z,1005.93
2018-11-21T00:31:16.918Z,1005.91
2018-11-21T00:32:16.909Z,1005.98
2018-11-21T00:33:16.903Z,1005.90
2018-11-21T00:34:16.881Z,1005.99
2018-11-21T00:35:16.869Z,1005.95
2018-11-21T00:36:16.863Z,1005.98
2018-11-21T00:37:16.851Z,1005.98
2018-11-21T00:38:16.838Z,1005.96
2018-11-21T00:39:16.826Z,1005.95
2018-11-21T00:40:16.810Z,1005.94
2018-11-21T00:41:16.798Z,1005.92
2018-11-21T00:42:16.786Z,1005.94
2018-11-21T00:43:16.775Z,1005.98
2018-11-21T00:44:16.768Z,1005.96
2018-11-21T00:45:16.756Z,1005.98
2018-11-21T00:46:16.742Z,1006.04
2018-11-21T00:47:16.730Z,1005.99
2018-11-21T00:48:16.713Z,1006.00
2018-11-21T00:49:16.701Z,1006.01
2018-11-21T00:50:16.696Z,1005.99
2018-11-21T00:51:16.683Z,1006.01
2018-11-21T00:52:16.666Z,1006.07
2018-11-21T00:53:16.656Z,1006.06
2018-11-21T00:54:16.642Z,1006.13
2018-11-21T00:55:16.629Z,1006.11
2018-11-21T00:56:16.623Z,1006.13
2018-11-21T00:57:16.611Z,1006.10
2018-11-21T00:58:16.598Z,1006.14
2018-11-21T00:59:16.587Z,1006.17
2018-11-21T01:00:16.577Z,1006.23
2018-11-21T01:01:16.557Z,1006.24
2018-11-21T01:02:16.547Z,1006.23
2018-11-21T01:03:16.533Z,1006.18
2018-11-21T01:04:16.527Z,1006.23
2018-11-21T01:05:16.519Z,1006.29
2018-11-21T01:06:16.500Z,1006.32
2018-11-21T01:07:16.485Z,1006.36
2018-11-21T01:08:16.478Z,1006.38
2018-11-21T01:09:16.466Z,1006.37
2018-11-21T01:10:16.455Z,1006.40
2018-11-21T01:11:16.442Z,1006.29
2018-11-21T01:12:16.426Z,1006.32
2018-11-21T01:13:16.412Z,1006.32
2018-11-21T01:14:16.399Z,1006.35
2018-11-21T01:15:16.389Z,1006.40
2018-11-21T01:16:16.383Z,1006.44
2018-11-21T01:17:16.369Z,1006.45
2018-11-21T01:18:16.358Z,1006.48
2018-11-21T01:19:16.345Z,1006.47
2018-11-21T01:20:16.330Z,1006.37
2018-11-21T01:21:16.316Z,1006.40
2018-11-21T01:22:16.308Z,1006.44
2018-11-21T01:23:16.296Z,1006.44
2018-11-21T01:24:16.285Z,1006.35
2018-11-21T01:25:16.269Z,1006.44
2018-11-21T01:26:16.259Z,1006.43
2018-11-21T01:27:16.245Z,1006.46
2018-11-21T01:28:16.236Z,1006.46
2018-11-21T01:29:16.233Z,1006.45
2018-11-21T01:30:16.211Z,1006.48
2018-11-21T01:31:16.201Z,1006.48
2018-11-21T01:32:16.183Z,1006.62
2018-11-21T01:33:16.171Z,1006.58
2018-11-21T01:34:16.162Z,1006.58
2018-11-21T01:35:16.147Z,1006.63
2018-11-21T01:36:16.139Z,1006.65
2018-11-21T01:37:16.127Z,1006.56
2018-11-21T01:38:16.111Z,1006.56
2018-11-21T01:39:16.098Z,1006.55
2018-11-21T01:40:16.093Z,1006.58
2018-11-21T01:41:16.080Z,1006.57
2018-11-21T01:42:16.068Z,1006.57
2018-11-21T01:43:16.054Z,1006.58
2018-11-21T01:44:16.039Z,1006.62
2018-11-21T01:45:16.026Z,1006.63
2018-11-21T01:46:16.013Z,1006.64
2018-11-21T01:47:16.002Z,1006.68
2018-11-21T01:48:15.994Z,1006.59
2018-11-21T01:49:15.983Z,1006.57
2018-11-21T01:50:15.970Z,1006.55
2018-11-21T01:51:15.959Z,1006.56
2018-11-21T01:52:15.942Z,1006.56
2018-11-21T01:53:15.931Z,1006.64
2018-11-21T01:54:15.923Z,1006.62
2018-11-21T01:55:15.912Z,1006.71
2018-11-21T01:56:15.897Z,1006.69
2018-11-21T01:57:15.881Z,1006.73
2018-11-21T01:58:15.868Z,1006.72
2018-11-21T01:59:15.857Z,1006.76
2018-11-21T02:00:15.850Z,1006.82
2018-11-21T02:01:15.838Z,1006.81
2018-11-21T02:02:15.825Z,1006.84
2018-11-21T02:03:15.817Z,1006.87
2018-11-21T02:04:15.795Z,1006.84
2018-11-21T02:05:15.789Z,1006.88
2018-11-21T02:06:15.771Z,1006.91
2018-11-21T02:07:15.759Z,1006.93
2018-11-21T02:08:15.753Z,1006.93
2018-11-21T02:09:15.740Z,1006.96
2018-11-21T02:10:15.724Z,1006.97
2018-11-21T02:11:15.710Z,1006.97
2018-11-21T02:12:15.702Z,1006.94
2018-11-21T02:13:15.691Z,1006.92
2018-11-21T02:14:15.678Z,1006.88
2018-11-21T02:15:15.666Z,1006.92
2018-11-21T02:16:15.650Z,1006.93
2018-11-21T02:17:15.637Z,1006.94
2018-11-21T02:18:15.625Z,1006.90
2018-11-21T02:19:15.613Z,1006.83
2018-11-21T02:20:15.606Z,1006.94
2018-11-21T02:21:15.595Z,1006.92
2018-11-21T02:22:15.579Z,1006.91
2018-11-21T02:23:15.568Z,1006.89
2018-11-21T02:24:15.551Z,1006.96
2018-11-21T02:25:15.539Z,1006.96
2018-11-21T02:26:15.531Z,1006.96
2018-11-21T02:27:15.518Z,1006.93
2018-11-21T02:28:15.501Z,1006.99
2018-11-21T02:29:15.490Z,1006.98
2018-11-21T02:30:15.476Z,1006.93
2018-11-21T02:31:15.464Z,1006.97
2018-11-21T02:32:15.458Z,1006.89
2018-11-21T02:33:15.446Z,1007.00
2018-11-21T02:34:15.434Z,1007.02
2018-11-21T02:35:15.421Z,1007.08
2018-11-21T02:36:15.402Z,1007.09
2018-11-21T02:37:15.390Z,1007.13
2018-11-21T02:38:15.377Z,1007.09
2018-11-21T02:39:15.364Z,1007.04
2018-11-21T02:40:15.358Z,1007.06
2018-11-21T02:41:15.345Z,1007.03
2018-11-21T02:42:15.326Z,1007.04
2018-11-21T02:43:15.315Z,1007.04
2018-11-21T02:44:15.307Z,1007.08
2018-11-21T02:45:15.295Z,1007.07
2018-11-21T02:46:15.280Z,1007.13
2018-11-21T02:47:15.270Z,1007.12
2018-11-21T02:48:15.282Z,1007.10
2018-11-21T02:49:15.240Z,1007.14
2018-11-21T02:50:15.230Z,1007.19
2018-11-21T02:51:15.215Z,1007.27
2018-11-21T02:52:15.207Z,1007.25
2018-11-21T02:53:15.197Z,1007.22
2018-11-21T02:54:15.181Z,1007.22
2018-11-21T02:55:15.169Z,1007.22
2018-11-21T02:56:15.154Z,1007.22
2018-11-21T02:57:15.139Z,1007.23
2018-11-21T02:58:15.130Z,1007.26
2018-11-21T02:59:15.119Z,1007.27
2018-11-21T03:00:15.101Z,1007.29
2018-11-21T03:01:15.091Z,1007.35
2018-11-21T03:02:15.076Z,1007.34
2018-11-21T03:03:15.063Z,1007.29
2018-11-21T03:04:15.057Z,1007.30
2018-11-21T03:05:15.045Z,1007.34
2018-11-21T03:06:15.029Z,1007.32
2018-11-21T03:07:15.019Z,1007.31
2018-11-21T03:08:15.001Z,1007.34
2018-11-21T03:09:14.988Z,1007.38
2018-11-21T03:10:14.974Z,1007.40
2018-11-21T03:11:14.964Z,1007.38
2018-11-21T03:12:14.954Z,1007.44
2018-11-21T03:13:14.943Z,1007.46
2018-11-21T03:14:14.925Z,1007.49
2018-11-21T03:15:14.912Z,1007.54
2018-11-21T03:16:14.908Z,1007.57
2018-11-21T03:17:14.891Z,1007.55
2018-11-21T03:18:14.883Z,1007.63
2018-11-21T03:19:14.867Z,1007.67
2018-11-21T03:20:14.849Z,1007.75
2018-11-21T03:21:14.837Z,1007.68
2018-11-21T03:22:14.827Z,1007.69
2018-11-21T03:23:14.816Z,1007.72
2018-11-21T03:24:14.798Z,1007.68
2018-11-21T03:25:14.790Z,1007.70
2018-11-21T03:26:14.776Z,1007.72
2018-11-21T03:27:14.760Z,1007.71
2018-11-21T03:28:14.753Z,1007.77
2018-11-21T03:29:14.746Z,1007.74
2018-11-21T03:30:14.722Z,1007.74
2018-11-21T03:31:14.709Z,1007.80
2018-11-21T03:32:14.706Z,1007.84
2018-11-21T03:33:14.694Z,1007.84
2018-11-21T03:34:14.675Z,1007.74
2018-11-21T03:35:14.664Z,1007.71
2018-11-21T03:36:14.646Z,1007.75
2018-11-21T03:37:14.633Z,1007.81
2018-11-21T03:38:14.619Z,1007.86
2018-11-21T03:39:14.608Z,1007.85
2018-11-21T03:40:14.603Z,1007.81
2018-11-21T03:41:14.586Z,1007.86
2018-11-21T03:42:14.577Z,1007.88
2018-11-21T03:43:14.561Z,1007.89
2018-11-21T03:44:14.543Z,1007.91
2018-11-21T03:45:14.531Z,1007.93
2018-11-21T03:46:14.522Z,1007.91
2018-11-21T03:47:14.510Z,1007.94
2018-11-21T03:48:14.492Z,1008.01
2018-11-21T03:49:14.480Z,1007.97
2018-11-21T03:50:14.465Z,1007.99
2018-11-21T03:51:14.454Z,1007.96
2018-11-21T03:52:14.448Z,1008.02
2018-11-21T03:53:14.432Z,1007.99
2018-11-21T03:54:14.418Z,1008.05
2018-11-21T03:55:14.405Z,1008.05
2018-11-21T03:56:14.394Z,1008.08
2018-11-21T03:57:14.377Z,1007.96
2018-11-21T03:58:14.363Z,1007.99
2018-11-21T03:59:14.349Z,1007.95
2018-11-21T04:00:14.349Z,1007.92
2018-11-21T04:01:14.334Z,1007.94
2018-11-21T04:02:14.314Z,1007.96
2018-11-21T04:03:14.298Z,1007.94
2018-11-21T04:04:14.308Z,1007.99
2018-11-21T04:05:14.277Z,1007.98
2018-11-21T04:06:14.262Z,1008.01
2018-11-21T04:07:14.252Z,1007.93
2018-11-21T04:08:14.233Z,1007.95
2018-11-21T04:09:14.225Z,1007.99
2018-11-21T04:10:14.206Z,1007.98
2018-11-21T04:11:14.195Z,1007.94
2018-11-21T04:12:14.226Z,1007.93
2018-11-21T04:13:14.179Z,1007.90
2018-11-21T04:14:14.160Z,1007.93
2018-11-21T04:15:14.146Z,1007.94
2018-11-21T04:16:14.128Z,1007.93
2018-11-21T04:17:14.116Z,1008.00
2018-11-21T04:18:14.108Z,1008.04
2018-11-21T04:19:14.094Z,1008.05
2018-11-21T04:20:14.078Z,1008.07
2018-11-21T04:21:14.064Z,1008.04
2018-11-21T04:22:14.048Z,1008.05
2018-11-21T04:23:14.037Z,1008.06
2018-11-21T04:24:14.031Z,1008.01
2018-11-21T04:25:14.022Z,1008.03
2018-11-21T04:26:14.002Z,1008.01
2018-11-21T04:27:13.988Z,1008.00
2018-11-21T04:28:13.969Z,1008.08
2018-11-21T04:29:13.958Z,1008.15
2018-11-21T04:30:13.945Z,1008.15
2018-11-21T04:31:13.931Z,1008.20
2018-11-21T04:32:13.921Z,1008.19
2018-11-21T04:33:13.909Z,1008.32
2018-11-21T04:34:13.890Z,1008.34
2018-11-21T04:35:13.878Z,1008.37
2018-11-21T04:36:13.873Z,1008.46
2018-11-21T04:37:13.858Z,1008.49
2018-11-21T04:38:13.844Z,1008.55
2018-11-21T04:39:13.831Z,1008.64
2018-11-21T04:40:13.812Z,1008.63
2018-11-21T04:41:13.800Z,1008.72
2018-11-21T04:42:13.788Z,1008.69
2018-11-21T04:43:13.774Z,1008.71
2018-11-21T04:44:13.766Z,1008.69
2018-11-21T04:45:13.754Z,1008.66
2018-11-21T04:46:13.739Z,1008.63
2018-11-21T04:47:13.727Z,1008.53
2018-11-21T04:48:13.709Z,1008.51
2018-11-21T04:49:13.697Z,1008.49
2018-11-21T04:50:13.687Z,1008.47
2018-11-21T04:51:13.673Z,1008.46
2018-11-21T04:52:13.661Z,1008.43
2018-11-21T04:53:13.644Z,1008.49
2018-11-21T04:54:13.630Z,1008.51
2018-11-21T04:55:13.617Z,1008.51
2018-11-21T04:56:13.609Z,1008.48
2018-11-21T04:57:13.596Z,1008.51
2018-11-21T04:58:13.583Z,1008.57
2018-11-21T04:59:13.570Z,1008.54
2018-11-21T05:00:13.552Z,1008.64
2018-11-21T05:01:13.539Z,1008.69
2018-11-21T05:02:13.526Z,1008.74
2018-11-21T05:03:13.511Z,1008.77
2018-11-21T05:04:13.504Z,1008.78
2018-11-21T05:05:13.492Z,1008.80
2018-11-21T05:06:13.471Z,1008.81
2018-11-21T05:07:13.458Z,1008.80
2018-11-21T05:08:13.449Z,1008.82
2018-11-21T05:09:13.436Z,1008.80
2018-11-21T05:10:13.427Z,1008.79
2018-11-21T05:11:13.415Z,1008.81
2018-11-21T05:12:13.393Z,1008.79
2018-11-21T05:13:13.379Z,1008.78
2018-11-21T05:14:13.365Z,1008.81
2018-11-21T05:15:13.352Z,1008.85
2018-11-21T05:16:13.346Z,1008.91
2018-11-21T05:17:13.332Z,1008.93
2018-11-21T05:18:13.316Z,1008.94
2018-11-21T05:19:13.304Z,1008.97
2018-11-21T05:20:13.293Z,1008.96
2018-11-21T05:21:13.273Z,1009.01
2018-11-21T05:22:13.264Z,1008.98
2018-11-21T05:23:13.249Z,1009.08
2018-11-21T05:24:13.236Z,1009.05
2018-11-21T05:25:13.221Z,1009.09
2018-11-21T05:26:13.205Z,1009.08
2018-11-21T05:27:13.193Z,1009.10
2018-11-21T05:28:13.183Z,1009.12
2018-11-21T05:29:13.169Z,1009.21
2018-11-21T05:30:13.165Z,1009.16
2018-11-21T05:31:13.143Z,1009.18
2018-11-21T05:32:13.130Z,1009.15
2018-11-21T05:33:13.111Z,1009.18
2018-11-21T05:34:13.100Z,1009.15
2018-11-21T05:35:13.085Z,1009.13
2018-11-21T05:36:13.077Z,1009.14
2018-11-21T05:37:13.064Z,1009.18
2018-11-21T05:38:13.044Z,1009.21
2018-11-21T05:39:13.031Z,1009.21
2018-11-21T05:40:13.022Z,1009.16
2018-11-21T05:41:13.010Z,1009.18
2018-11-21T05:42:12.995Z,1009.16
2018-11-21T05:43:12.984Z,1009.11
2018-11-21T05:44:12.968Z,1009.06
2018-11-21T05:45:12.951Z,1009.05
2018-11-21T05:46:12.939Z,1009.08
2018-11-21T05:47:12.928Z,1009.12
2018-11-21T05:48:12.914Z,1009.06
2018-11-21T05:49:12.901Z,1009.08
2018-11-21T05:50:12.889Z,1009.05
2018-11-21T05:51:12.874Z,1009.03
2018-11-21T05:52:12.859Z,1009.03
2018-11-21T05:53:12.845Z,1009.04
2018-11-21T05:54:12.834Z,1009.07
2018-11-21T05:55:12.824Z,1009.08
2018-11-21T05:56:12.803Z,1009.05
2018-11-21T05:57:12.789Z,1009.10
2018-11-21T05:58:12.775Z,1009.13
2018-11-21T05:59:12.761Z,1009.16
2018-11-21T06:00:12.753Z,1009.15
2018-11-21T06:01:12.739Z,1009.16
2018-11-21T06:02:12.725Z,1009.22
2018-11-21T06:03:12.711Z,1009.23
2018-11-21T06:04:12.693Z,1009.27
2018-11-21T06:05:12.681Z,1009.23
2018-11-21T06:06:12.669Z,1009.32
2018-11-21T06:07:12.653Z,1009.29
2018-11-21T06:08:12.644Z,1009.33
2018-11-21T06:09:12.635Z,1009.31
2018-11-21T06:10:12.612Z,1009.31
2018-11-21T06:11:12.600Z,1009.35
2018-11-21T06:12:12.593Z,1009.34
2018-11-21T06:13:12.577Z,1009.41
2018-11-21T06:14:12.564Z,1009.45
2018-11-21T06:15:12.556Z,1009.42
2018-11-21T06:16:12.531Z,1009.47
2018-11-21T06:17:12.518Z,1009.46
2018-11-21T06:18:12.504Z,1009.55
2018-11-21T06:19:12.489Z,1009.50
2018-11-21T06:20:12.483Z,1009.47
2018-11-21T06:21:12.467Z,1009.54
2018-11-21T06:22:12.454Z,1009.51
2018-11-21T06:23:12.444Z,1009.46
2018-11-21T06:24:12.421Z,1009.43
2018-11-21T06:25:12.408Z,1009.41
2018-11-21T06:26:12.400Z,1009.42
2018-11-21T06:27:12.389Z,1009.45
2018-11-21T06:28:12.368Z,1009.47
2018-11-21T06:29:12.354Z,1009.47
2018-11-21T06:30:12.340Z,1009.50
2018-11-21T06:31:12.330Z,1009.52
2018-11-21T06:32:12.317Z,1009.53
2018-11-21T06:33:12.304Z,1009.60
2018-11-21T06:34:12.289Z,1009.56
2018-11-21T06:35:12.279Z,1009.57
2018-11-21T06:36:12.259Z,1009.53
2018-11-21T06:37:12.246Z,1009.60
2018-11-21T06:38:12.232Z,1009.64
2018-11-21T06:39:12.217Z,1009.61
2018-11-21T06:40:12.212Z,1009.68
2018-11-21T06:41:12.195Z,1009.69
2018-11-21T06:42:12.177Z,1009.74
2018-11-21T06:43:12.163Z,1009.71
2018-11-21T06:44:12.154Z,1009.74
2018-11-21T06:45:12.142Z,1009.82
2018-11-21T06:46:12.127Z,1009.77
2018-11-21T06:47:12.116Z,1009.77
2018-11-21T06:48:12.097Z,1009.74
2018-11-21T06:49:12.083Z,1009.83
2018-11-21T06:50:12.068Z,1009.80
2018-11-21T06:51:12.059Z,1009.89
2018-11-21T06:52:12.047Z,1009.87
2018-11-21T06:53:12.033Z,1009.90
2018-11-21T06:54:12.018Z,1009.91
2018-11-21T06:55:12.004Z,1009.89
2018-11-21T06:56:11.988Z,1009.90
2018-11-21T06:57:11.973Z,1009.90
2018-11-21T06:58:11.964Z,1009.90
2018-11-21T06:59:11.951Z,1009.94
2018-11-21T07:00:11.932Z,1009.90
2018-11-21T07:01:11.919Z,1009.89
2018-11-21T07:02:11.906Z,1009.94
2018-11-21T07:03:11.893Z,1009.95
2018-11-21T07:04:11.882Z,1009.96
2018-11-21T07:05:11.869Z,1009.93
2018-11-21T07:06:11.855Z,1009.93
2018-11-21T07:07:11.843Z,1009.94
2018-11-21T07:08:11.823Z,1009.92
2018-11-21T07:09:11.812Z,1009.93
2018-11-21T07:10:11.796Z,1009.90
2018-11-21T07:11:11.782Z,1009.91
2018-11-21T07:12:11.776Z,1009.89
2018-11-21T07:13:11.763Z,1009.89
2018-11-21T07:14:11.742Z,1009.92
2018-11-21T07:15:11.728Z,1009.92
2018-11-21T07:16:11.719Z,1009.96
2018-11-21T07:17:11.705Z,1009.96
2018-11-21T07:18:11.693Z,1010.02
2018-11-21T07:19:11.679Z,1010.04
2018-11-21T07:20:11.660Z,1010.09
2018-11-21T07:21:11.647Z,1010.14
2018-11-21T07:22:11.633Z,1010.14
2018-11-21T07:23:11.619Z,1010.14
2018-11-21T07:24:11.613Z,1010.22
2018-11-21T07:25:11.598Z,1010.30
2018-11-21T07:26:11.583Z,1010.26
2018-11-21T07:27:11.569Z,1010.30
2018-11-21T07:28:13.147Z,1010.31
2018-11-21T07:29:11.538Z,1010.26
2018-11-21T07:30:11.528Z,1010.28
2018-11-21T07:31:11.514Z,1010.34
2018-11-21T07:32:11.497Z,1010.36
2018-11-21T07:33:11.484Z,1010.39
2018-11-21T07:34:11.471Z,1010.43
2018-11-21T07:35:14.670Z,1010.50
2018-11-21T07:36:11.447Z,1010.52
2018-11-21T07:37:11.436Z,1010.49
2018-11-21T07:38:11.421Z,1010.47
2018-11-21T07:39:11.412Z,1010.53
2018-11-21T07:40:11.394Z,1010.55
2018-11-21T07:41:11.377Z,1010.57
2018-11-21T07:42:11.364Z,1010.65
2018-11-21T07:43:11.351Z,1010.66
2018-11-21T07:44:11.341Z,1010.65
2018-11-21T07:45:11.353Z,1010.67
2018-11-21T07:46:11.309Z,1010.63
2018-11-21T07:47:11.296Z,1010.65
2018-11-21T07:48:11.287Z,1010.59
2018-11-21T07:49:11.275Z,1010.60
2018-11-21T07:50:11.264Z,1010.67
2018-11-21T07:51:11.248Z,1010.73
2018-11-21T07:52:11.233Z,1010.67
2018-11-21T07:53:11.218Z,1010.66
2018-11-21T07:54:11.208Z,1010.77
2018-11-21T07:55:11.193Z,1010.71
2018-11-21T07:56:11.184Z,1010.75
2018-11-21T07:57:11.173Z,1010.78
2018-11-21T07:58:11.157Z,1010.76
2018-11-21T07:59:11.145Z,1010.74
2018-11-21T08:00:11.128Z,1010.79
2018-11-21T08:01:11.116Z,1010.72
2018-11-21T08:02:11.108Z,1010.74
2018-11-21T08:03:11.100Z,1010.71
2018-11-21T08:04:11.079Z,1010.70
2018-11-21T08:05:11.078Z,1010.78
2018-11-21T08:06:11.058Z,1010.77
2018-11-21T08:07:11.045Z,1010.87
2018-11-21T08:08:11.039Z,1010.83
2018-11-21T08:09:11.027Z,1010.78
2018-11-21T08:10:11.014Z,1010.79
2018-11-21T08:11:11.006Z,1010.73
2018-11-21T08:12:10.988Z,1010.78
2018-11-21T08:13:10.976Z,1010.85
2018-11-21T08:14:10.962Z,1010.87
2018-11-21T08:15:10.952Z,1010.89
2018-11-21T08:16:10.944Z,1010.90
2018-11-21T08:17:10.934Z,1010.90
2018-11-21T08:18:10.916Z,1010.97
2018-11-21T08:19:10.905Z,1010.96
2018-11-21T08:20:10.899Z,1011.10
2018-11-21T08:21:10.886Z,1011.09
2018-11-21T08:22:10.875Z,1011.06
2018-11-21T08:23:10.869Z,1011.10
2018-11-21T08:24:10.849Z,1011.15
2018-11-21T08:25:10.837Z,1011.11
2018-11-21T08:26:10.826Z,1011.07
2018-11-21T08:27:10.814Z,1011.16
2018-11-21T08:28:10.809Z,1011.11
2018-11-21T08:29:10.798Z,1011.16
2018-11-21T08:30:10.793Z,1011.12
2018-11-21T08:31:10.774Z,1011.21
2018-11-21T08:32:10.759Z,1011.19
2018-11-21T08:33:10.748Z,1011.09
2018-11-21T08:34:10.741Z,1011.10
2018-11-21T08:35:10.731Z,1011.16
2018-11-21T08:36:10.715Z,1011.11
2018-11-21T08:37:10.704Z,1011.17
2018-11-21T08:38:10.693Z,1011.13
2018-11-21T08:39:10.681Z,1011.13
2018-11-21T08:40:10.675Z,1011.20
2018-11-21T08:41:10.664Z,1011.18
2018-11-21T08:42:10.652Z,1011.12
2018-11-21T08:43:10.641Z,1011.09
2018-11-21T08:44:10.625Z,1011.11
2018-11-21T08:45:10.614Z,1011.14
2018-11-21T08:46:10.601Z,1011.14
2018-11-21T08:47:10.594Z,1011.13
2018-11-21T08:48:10.583Z,1011.18
2018-11-21T08:49:10.573Z,1011.14
2018-11-21T08:50:10.557Z,1011.17
2018-11-21T08:51:10.543Z,1011.22
2018-11-21T08:52:10.537Z,1011.21
2018-11-21T08:53:10.527Z,1011.21
2018-11-21T08:54:10.513Z,1011.25
2018-11-21T08:55:10.505Z,1011.27
2018-11-21T08:56:10.487Z,1011.31
2018-11-21T08:57:10.474Z,1011.30
2018-11-21T08:58:10.462Z,1011.36
2018-11-21T08:59:10.451Z,1011.41
2018-11-21T09:00:10.444Z,1011.44
2018-11-21T09:01:10.433Z,1011.48
2018-11-21T09:02:10.423Z,1011.51
2018-11-21T09:03:10.411Z,1011.52
2018-11-21T09:04:10.397Z,1011.56
2018-11-21T09:05:10.387Z,1011.59
2018-11-21T09:06:10.385Z,1011.64
2018-11-21T09:07:10.372Z,1011.67
2018-11-21T09:08:10.365Z,1011.65
2018-11-21T09:09:10.351Z,1011.68
2018-11-21T09:10:10.342Z,1011.72
2018-11-21T09:11:10.335Z,1011.74
2018-11-21T09:12:11.156Z,1011.79
2018-11-21T09:13:10.323Z,1011.86
2018-11-21T09:14:10.315Z,1011.81
2018-11-21T09:15:10.310Z,1011.83
2018-11-21T09:16:10.300Z,1011.90
2018-11-21T09:17:10.293Z,1011.87
2018-11-21T09:18:10.287Z,1011.83
2018-11-21T09:19:10.281Z,1011.84
2018-11-21T09:20:10.283Z,1011.78
2018-11-21T09:21:10.278Z,1011.82
2018-11-21T09:22:10.337Z,1011.81
2018-11-21T09:23:10.260Z,1011.80
2018-11-21T09:24:10.260Z,1011.81
2018-11-21T09:25:10.256Z,1011.73
2018-11-21T09:26:10.249Z,1011.80
2018-11-21T09:27:10.266Z,1011.84
2018-11-21T09:28:10.234Z,1011.86
2018-11-21T09:29:10.231Z,1011.89
2018-11-21T09:30:10.223Z,1011.91
2018-11-21T09:31:10.216Z,1011.96
2018-11-21T09:32:10.257Z,1012.05
2018-11-21T09:33:10.209Z,1012.00
2018-11-21T09:34:10.203Z,1012.10
2018-11-21T09:35:10.195Z,1012.13
2018-11-21T09:36:10.185Z,1012.11
2018-11-21T09:37:10.181Z,1012.10
2018-11-21T09:38:10.181Z,1012.07
2018-11-21T09:39:10.175Z,1012.08
2018-11-21T09:40:10.161Z,1012.12
2018-11-21T09:41:10.160Z,1012.10
2018-11-21T09:42:10.151Z,1012.13
2018-11-21T09:43:10.145Z,1012.10
2018-11-21T09:44:10.144Z,1012.14
2018-11-21T09:45:10.139Z,1012.15
2018-11-21T09:46:10.134Z,1012.20
2018-11-21T09:47:10.131Z,1012.26
2018-11-21T09:48:10.123Z,1012.33
2018-11-21T09:49:10.118Z,1012.34
2018-11-21T09:50:10.114Z,1012.41
2018-11-21T09:51:10.112Z,1012.42
2018-11-21T09:52:10.112Z,1012.42
2018-11-21T09:53:10.109Z,1012.54
2018-11-21T09:54:10.103Z,1012.60
2018-11-21T09:55:10.101Z,1012.63
2018-11-21T09:56:10.103Z,1012.59
2018-11-21T09:57:10.099Z,1012.59
2018-11-21T09:58:10.098Z,1012.51
2018-11-21T09:59:10.097Z,1012.50
2018-11-21T10:00:10.089Z,1012.52
2018-11-21T10:01:10.087Z,1012.62
2018-11-21T10:02:10.084Z,1012.57
2018-11-21T10:03:10.081Z,1012.43
2018-11-21T10:04:10.085Z,1012.47
2018-11-21T10:05:10.083Z,1012.43
2018-11-21T10:06:10.078Z,1012.47
2018-11-21T10:07:10.078Z,1012.46
2018-11-21T10:08:10.069Z,1012.44
2018-11-21T10:09:10.071Z,1012.43
2018-11-21T10:10:10.071Z,1012.49
2018-11-21T10:11:10.064Z,1012.48
2018-11-21T10:12:10.058Z,1012.49
2018-11-21T10:13:10.055Z,1012.55
2018-11-21T10:14:10.049Z,1012.50
2018-11-21T10:15:10.046Z,1012.56
2018-11-21T10:16:10.047Z,1012.59
2018-11-21T10:17:10.044Z,1012.62
2018-11-21T10:18:10.038Z,1012.60
2018-11-21T10:19:10.034Z,1012.66
2018-11-21T10:20:10.026Z,1012.61
2018-11-21T10:21:10.023Z,1012.65
2018-11-21T10:22:10.017Z,1012.59
2018-11-21T10:23:10.014Z,1012.58
2018-11-21T10:24:10.015Z,1012.60
2018-11-21T10:25:10.011Z,1012.51
2018-11-21T10:26:10.001Z,1012.56
2018-11-21T10:27:09.999Z,1012.58
2018-11-21T10:28:09.999Z,1012.54
2018-11-21T10:29:09.997Z,1012.57
2018-11-21T10:30:09.993Z,1012.51
2018-11-21T10:31:09.990Z,1012.42
2018-11-21T10:32:09.982Z,1012.37
2018-11-21T10:33:09.977Z,1012.27
2018-11-21T10:34:09.973Z,1012.37
2018-11-21T10:35:09.973Z,1012.30
2018-11-21T10:36:09.972Z,1012.39
2018-11-21T10:37:09.968Z,1012.40
2018-11-21T10:38:09.961Z,1012.35
2018-11-21T10:39:09.957Z,1012.37
2018-11-21T10:40:09.948Z,1012.33
2018-11-21T10:41:09.944Z,1012.32
2018-11-21T10:42:09.942Z,1012.38
2018-11-21T10:43:09.937Z,1012.34
2018-11-21T10:44:09.928Z,1012.31
2018-11-21T10:45:09.926Z,1012.29
2018-11-21T10:46:09.917Z,1012.33
2018-11-21T10:47:09.911Z,1012.27
2018-11-21T10:48:09.908Z,1012.26
2018-11-21T10:49:09.902Z,1012.24
2018-11-21T10:50:09.894Z,1012.20
2018-11-21T10:51:09.890Z,1012.20
2018-11-21T10:52:09.877Z,1012.24
2018-11-21T10:53:09.871Z,1012.17
2018-11-21T10:54:09.864Z,1012.18
2018-11-21T10:55:09.858Z,1012.19
2018-11-21T10:56:09.855Z,1012.22
2018-11-21T10:57:09.850Z,1012.22
2018-11-21T10:58:09.835Z,1012.24
2018-11-21T10:59:09.832Z,1012.25
2018-11-21T11:00:09.827Z,1012.28
2018-11-21T11:01:09.820Z,1012.28
2018-11-21T11:02:09.810Z,1012.27
2018-11-21T11:03:09.804Z,1012.28
2018-11-21T11:04:09.792Z,1012.28
2018-11-21T11:05:09.786Z,1012.32
2018-11-21T11:06:09.778Z,1012.37
2018-11-21T11:07:09.772Z,1012.33
2018-11-21T11:08:09.772Z,1012.34
2018-11-21T11:09:09.764Z,1012.28
2018-11-21T11:10:09.759Z,1012.36
2018-11-21T11:11:09.757Z,1012.36
2018-11-21T11:12:09.742Z,1012.39
2018-11-21T11:13:09.739Z,1012.40
2018-11-21T11:14:09.738Z,1012.35
2018-11-21T11:15:09.730Z,1012.42
2018-11-21T11:16:09.721Z,1012.36
2018-11-21T11:17:09.715Z,1012.44
2018-11-21T11:18:09.709Z,1012.40
2018-11-21T11:19:09.704Z,1012.35
2018-11-21T11:20:09.704Z,1012.34
2018-11-21T11:21:09.698Z,1012.33
2018-11-21T11:22:09.692Z,1012.29
2018-11-21T11:23:09.689Z,1012.36
2018-11-21T11:24:09.678Z,1012.38
2018-11-21T11:25:09.672Z,1012.36
2018-11-21T11:26:09.665Z,1012.40
2018-11-21T11:27:09.659Z,1012.42
2018-11-21T11:28:10.314Z,1012.48
2018-11-21T11:29:09.654Z,1012.44
2018-11-21T11:30:09.641Z,1012.40
2018-11-21T11:31:09.637Z,1012.46
2018-11-21T11:32:09.634Z,1012.45
2018-11-21T11:33:09.629Z,1012.40
2018-11-21T11:34:09.621Z,1012.44
2018-11-21T11:35:09.615Z,1012.40
2018-11-21T11:36:09.606Z,1012.36
2018-11-21T11:37:09.597Z,1012.38
2018-11-21T11:38:09.592Z,1012.35
2018-11-21T11:39:09.585Z,1012.42
2018-11-21T11:40:09.588Z,1012.40
2018-11-21T11:41:09.574Z,1012.39
2018-11-21T11:42:09.568Z,1012.38
2018-11-21T11:43:09.562Z,1012.32
2018-11-21T11:44:09.551Z,1012.36
2018-11-21T11:45:10.204Z,1012.32
2018-11-21T11:46:09.539Z,1012.33
2018-11-21T11:47:09.534Z,1012.29
2018-11-21T11:48:09.519Z,1012.31
2018-11-21T11:49:09.513Z,1012.25
2018-11-21T11:50:09.503Z,1012.31
2018-11-21T11:51:09.497Z,1012.32
2018-11-21T11:52:09.493Z,1012.34
2018-11-21T11:53:09.520Z,1012.38
2018-11-21T11:54:09.478Z,1012.34
2018-11-21T11:55:09.470Z,1012.36
2018-11-21T11:56:09.456Z,1012.37
2018-11-21T11:57:09.450Z,1012.36
2018-11-21T11:58:09.440Z,1012.35
2018-11-21T11:59:09.437Z,1012.38
2018-11-21T12:00:09.429Z,1012.40
2018-11-21T12:01:09.421Z,1012.34
2018-11-21T12:02:13.151Z,1012.39
2018-11-21T12:03:09.399Z,1012.37
2018-11-21T12:04:09.399Z,1012.40
2018-11-21T12:05:09.389Z,1012.40